createdAt,value
2023-01-18T00:00:33.492Z,3.66
2023-01-18T00:03:00.346Z,3.59
2023-01-18T00:05:27.068Z,3.83
2023-01-18T00:07:53.687Z,3.51
2023-01-18T00:10:20.937Z,3.53
2023-01-18T00:12:47.406Z,3.66
2023-01-18T00:15:14.187Z,3.69
2023-01-18T00:17:51.696Z,3.64
2023-01-18T00:20:21.483Z,3.71
2023-01-18T00:22:48.531Z,3.63
2023-01-18T00:25:15.239Z,3.58
2023-01-18T00:27:46.005Z,3.80
2023-01-18T00:30:13.445Z,3.53
2023-01-18T00:32:40.222Z,3.53
2023-01-18T00:35:08.050Z,3.19
2023-01-18T00:37:35.258Z,3.43
2023-01-18T00:40:02.151Z,3.28
2023-01-18T00:42:47.177Z,3.17
2023-01-18T00:45:14.005Z,3.10
2023-01-18T00:47:40.465Z,3.19
2023-01-18T00:50:07.376Z,3.42
2023-01-18T00:52:34.808Z,3.36
2023-01-18T00:55:03.863Z,3.51
2023-01-18T00:57:30.638Z,3.49
2023-01-18T00:59:57.205Z,3.35
2023-01-18T01:02:23.690Z,3.27
2023-01-18T01:05:08.900Z,3.22
2023-01-18T01:07:35.590Z,3.06
2023-01-18T01:10:08.981Z,3.42
2023-01-18T01:12:55.502Z,3.53
2023-01-18T01:15:40.850Z,3.53
2023-01-18T01:18:25.671Z,3.58
2023-01-18T01:21:10.887Z,3.46
2023-01-18T01:23:55.706Z,3.44
2023-01-18T01:26:22.283Z,3.54
2023-01-18T01:28:52.800Z,3.51
2023-01-18T01:31:20.117Z,3.42
2023-01-18T01:33:49.049Z,3.52
2023-01-18T01:36:18.147Z,3.50
2023-01-18T01:38:44.702Z,3.41
2023-01-18T01:41:17.853Z,3.18
2023-01-18T01:43:45.912Z,3.22
2023-01-18T01:46:24.607Z,3.29
2023-01-18T01:48:57.496Z,3.10
2023-01-18T01:51:23.996Z,3.26
2023-01-18T01:53:51.006Z,3.28
2023-01-18T01:56:18.990Z,3.32
2023-01-18T01:58:45.869Z,3.29
2023-01-18T02:01:12.633Z,3.33
2023-01-18T02:03:40.379Z,3.43
2023-01-18T02:06:32.039Z,3.30
2023-01-18T02:09:00.453Z,3.46
2023-01-18T02:11:27.075Z,3.14
2023-01-18T02:13:54.737Z,3.45
2023-01-18T02:16:43.223Z,3.25
2023-01-18T02:19:31.976Z,3.00
2023-01-18T02:22:41.443Z,2.91
2023-01-18T02:25:38.523Z,3.17
2023-01-18T02:28:21.659Z,3.11
2023-01-18T02:30:53.585Z,2.84
2023-01-18T02:33:31.313Z,3.11
2023-01-18T02:36:00.686Z,3.09
2023-01-18T02:38:39.803Z,3.21
2023-01-18T02:41:24.721Z,3.10
2023-01-18T02:44:11.882Z,3.17
2023-01-18T02:46:40.310Z,2.94
2023-01-18T02:49:12.117Z,2.63
2023-01-18T02:51:39.052Z,2.35
2023-01-18T02:54:08.720Z,2.56
2023-01-18T02:56:43.640Z,2.64
2023-01-18T02:59:26.133Z,2.44
2023-01-18T03:01:56.184Z,2.32
2023-01-18T03:04:24.515Z,2.58
2023-01-18T03:06:57.353Z,2.30
2023-01-18T03:09:27.032Z,2.70
2023-01-18T03:11:58.837Z,2.65
2023-01-18T03:14:46.897Z,2.23
2023-01-18T03:17:25.403Z,2.43
2023-01-18T03:20:08.554Z,2.56
2023-01-18T03:23:05.868Z,2.69
2023-01-18T03:25:58.897Z,2.63
2023-01-18T03:28:50.781Z,2.50
2023-01-18T03:31:38.855Z,2.35
2023-01-18T03:34:32.823Z,2.63
2023-01-18T03:37:02.731Z,2.65
2023-01-18T03:39:37.192Z,2.52
2023-01-18T03:42:12.270Z,2.69
2023-01-18T03:44:50.425Z,2.70
2023-01-18T03:47:17.062Z,2.79
2023-01-18T03:49:43.918Z,2.81
2023-01-18T03:52:13.933Z,2.82
2023-01-18T03:55:16.699Z,2.68
2023-01-18T03:58:01.997Z,2.23
2023-01-18T04:00:31.419Z,2.70
2023-01-18T04:02:58.982Z,2.33
2023-01-18T04:05:26.018Z,2.33
2023-01-18T04:07:52.622Z,2.51
2023-01-18T04:10:19.779Z,2.61
2023-01-18T04:12:46.616Z,2.72
2023-01-18T04:15:13.224Z,2.54
2023-01-18T04:17:39.874Z,2.77
2023-01-18T04:20:07.045Z,2.57
2023-01-18T04:22:34.009Z,2.63
2023-01-18T04:25:00.505Z,2.48
2023-01-18T04:27:27.090Z,2.67
2023-01-18T04:29:53.915Z,2.44
2023-01-18T04:32:20.397Z,2.35
2023-01-18T04:34:46.889Z,2.35
2023-01-18T04:37:13.413Z,2.05
2023-01-18T04:39:39.895Z,2.34
2023-01-18T04:42:07.018Z,2.48
2023-01-18T04:44:33.730Z,2.22
2023-01-18T04:47:00.459Z,2.41
2023-01-18T04:49:27.730Z,2.45
2023-01-18T04:51:54.227Z,2.39
2023-01-18T04:54:20.761Z,2.59
2023-01-18T04:56:47.490Z,2.55
2023-01-18T04:59:16.070Z,2.56
2023-01-18T05:01:42.960Z,2.44
2023-01-18T05:04:10.000Z,2.55
2023-01-18T05:06:36.504Z,2.32
2023-01-18T05:09:03.099Z,2.41
2023-01-18T05:11:29.627Z,2.51
2023-01-18T05:13:56.104Z,2.58
2023-01-18T05:16:23.493Z,2.53
2023-01-18T05:18:50.344Z,2.43
2023-01-18T05:21:16.929Z,2.20
2023-01-18T05:23:43.469Z,2.43
2023-01-18T05:26:21.396Z,2.54
2023-01-18T05:28:49.023Z,2.28
2023-01-18T05:31:16.533Z,2.20
2023-01-18T05:33:43.006Z,1.72
2023-01-18T05:36:09.879Z,2.00
2023-01-18T05:38:36.525Z,1.91
2023-01-18T05:41:03.551Z,1.80
2023-01-18T05:43:30.688Z,1.64
2023-01-18T05:45:57.643Z,1.67
2023-01-18T05:48:24.850Z,1.79
2023-01-18T05:50:51.769Z,2.04
2023-01-18T05:53:20.688Z,2.11
2023-01-18T05:56:01.772Z,1.16
2023-01-18T05:58:28.847Z,1.40
2023-01-18T06:00:55.808Z,1.57
2023-01-18T06:03:23.005Z,1.93
2023-01-18T06:05:51.373Z,1.74
2023-01-18T06:08:18.453Z,2.15
2023-01-18T06:10:52.316Z,2.09
2023-01-18T06:13:18.889Z,2.11
2023-01-18T06:15:49.543Z,2.31
2023-01-18T06:18:16.225Z,2.52
2023-01-18T06:20:42.939Z,2.19
2023-01-18T06:23:09.600Z,2.48
2023-01-18T06:25:36.112Z,2.55
2023-01-18T06:28:04.225Z,2.54
2023-01-18T06:30:31.913Z,2.46
2023-01-18T06:32:58.864Z,2.61
2023-01-18T06:35:25.825Z,2.48
2023-01-18T06:37:52.538Z,2.45
2023-01-18T06:40:19.196Z,2.50
2023-01-18T06:42:48.353Z,2.58
2023-01-18T06:45:16.195Z,2.67
2023-01-18T06:47:43.872Z,2.69
2023-01-18T06:50:11.207Z,2.51
2023-01-18T06:52:38.220Z,2.82
2023-01-18T06:55:05.330Z,2.69
2023-01-18T06:57:31.792Z,2.62
2023-01-18T06:59:58.297Z,2.83
2023-01-18T07:02:25.317Z,2.22
2023-01-18T07:04:52.389Z,2.40
2023-01-18T07:07:18.861Z,2.56
2023-01-18T07:09:45.733Z,2.25
2023-01-18T07:12:12.304Z,2.01
2023-01-18T07:14:38.909Z,2.23
2023-01-18T07:17:05.513Z,2.15
2023-01-18T07:19:32.112Z,2.48
2023-01-18T07:21:59.692Z,2.45
2023-01-18T07:24:26.442Z,2.14
2023-01-18T07:26:53.261Z,2.16
2023-01-18T07:29:20.228Z,2.42
2023-01-18T07:31:46.857Z,2.26
2023-01-18T07:34:13.937Z,2.42
2023-01-18T07:36:41.861Z,2.45
2023-01-18T07:39:09.334Z,2.53
2023-01-18T07:41:36.138Z,2.09
2023-01-18T07:44:05.984Z,2.28
2023-01-18T07:46:32.562Z,2.45
2023-01-18T07:48:59.138Z,2.57
2023-01-18T07:51:25.643Z,2.48
2023-01-18T07:53:55.395Z,2.57
2023-01-18T07:56:23.684Z,2.62
2023-01-18T07:58:50.508Z,2.54
2023-01-18T08:01:22.604Z,2.48
2023-01-18T08:03:50.156Z,2.66
2023-01-18T08:06:21.353Z,2.76
2023-01-18T08:08:47.840Z,2.59
2023-01-18T08:11:14.498Z,2.76
2023-01-18T08:13:41.788Z,2.64
2023-01-18T08:16:11.128Z,3.00
2023-01-18T08:18:38.048Z,3.00
2023-01-18T08:21:04.728Z,2.89
2023-01-18T08:23:31.185Z,2.89
2023-01-18T08:26:01.209Z,2.85
2023-01-18T08:28:27.971Z,3.28
2023-01-18T08:31:09.430Z,3.21
2023-01-18T08:33:37.747Z,3.23
2023-01-18T08:36:04.526Z,3.58
2023-01-18T08:38:31.108Z,3.27
2023-01-18T08:40:57.896Z,3.64
2023-01-18T08:43:24.753Z,3.81
2023-01-18T08:45:51.498Z,3.81
2023-01-18T08:48:18.027Z,3.86
2023-01-18T08:50:45.886Z,3.90
2023-01-18T08:53:13.204Z,3.79
2023-01-18T08:55:40.554Z,3.64
2023-01-18T08:58:07.325Z,3.79
2023-01-18T09:00:33.892Z,4.36
2023-01-18T09:03:02.841Z,4.43
2023-01-18T09:05:29.831Z,4.71
2023-01-18T09:07:57.704Z,4.63
2023-01-18T09:10:24.672Z,4.82
2023-01-18T09:12:53.632Z,4.73
2023-01-18T09:15:20.510Z,5.03
2023-01-18T09:17:47.203Z,5.19
2023-01-18T09:20:13.691Z,5.39
2023-01-18T09:22:42.658Z,5.74
2023-01-18T09:25:09.609Z,5.74
2023-01-18T09:27:36.107Z,5.99
2023-01-18T09:30:02.696Z,6.32
2023-01-18T09:32:30.579Z,6.14
2023-01-18T09:34:57.171Z,5.74
2023-01-18T09:37:23.798Z,5.86
2023-01-18T09:39:52.535Z,6.41
2023-01-18T09:42:24.928Z,5.49
2023-01-18T09:44:54.305Z,6.18
2023-01-18T09:47:24.160Z,7.03
2023-01-18T09:49:56.434Z,7.59
2023-01-18T09:52:38.299Z,8.33
2023-01-18T09:55:20.787Z,8.85
2023-01-18T09:57:50.279Z,9.16
2023-01-18T10:00:25.711Z,9.66
2023-01-18T10:03:00.778Z,9.08
2023-01-18T10:05:30.579Z,10.03
2023-01-18T10:08:23.864Z,10.35
2023-01-18T10:10:55.883Z,10.87
2023-01-18T10:13:33.303Z,9.78
2023-01-18T10:15:59.911Z,10.12
2023-01-18T10:18:26.693Z,9.08
2023-01-18T10:20:57.172Z,10.34
2023-01-18T10:23:30.935Z,11.73
2023-01-18T10:26:09.680Z,12.54
2023-01-18T10:28:55.207Z,13.04
2023-01-18T10:31:40.327Z,11.02
2023-01-18T10:34:18.696Z,11.96
2023-01-18T10:36:49.486Z,12.16
2023-01-18T10:39:27.972Z,9.30
2023-01-18T10:41:59.407Z,11.92
2023-01-18T10:44:25.867Z,12.92
2023-01-18T10:46:57.208Z,12.45
2023-01-18T10:49:35.034Z,12.85
2023-01-18T10:52:23.784Z,11.67
2023-01-18T10:54:57.604Z,12.41
2023-01-18T10:57:31.252Z,13.26
2023-01-18T10:59:59.603Z,10.62
2023-01-18T11:02:36.575Z,12.41
2023-01-18T11:05:32.781Z,12.78
2023-01-18T11:08:22.123Z,13.38
2023-01-18T11:11:08.815Z,13.42
2023-01-18T11:13:49.384Z,12.88
2023-01-18T11:16:21.377Z,13.96
2023-01-18T11:19:02.283Z,12.97
2023-01-18T11:21:41.130Z,14.19
2023-01-18T11:24:13.241Z,16.59
2023-01-18T11:26:59.463Z,16.69
2023-01-18T11:29:29.540Z,17.33
2023-01-18T11:31:56.874Z,14.60
2023-01-18T11:34:28.607Z,14.35
2023-01-18T11:36:56.231Z,13.52
2023-01-18T11:39:24.682Z,12.96
2023-01-18T11:41:52.035Z,12.71
2023-01-18T11:44:25.297Z,14.62
2023-01-18T11:46:54.736Z,14.41
2023-01-18T11:49:47.428Z,17.25
2023-01-18T11:52:53.916Z,19.66
2023-01-18T11:55:36.508Z,17.65
2023-01-18T11:58:06.157Z,19.67
2023-01-18T12:00:45.275Z,21.85
2023-01-18T12:03:27.554Z,17.99
2023-01-18T12:06:03.877Z,17.96
2023-01-18T12:08:47.403Z,18.02
2023-01-18T12:11:14.978Z,18.77
2023-01-18T12:13:43.472Z,21.89
2023-01-18T12:16:20.250Z,20.61
2023-01-18T12:18:57.169Z,17.50
2023-01-18T12:21:23.655Z,15.77
2023-01-18T12:23:50.099Z,13.69
2023-01-18T12:26:29.203Z,14.93
2023-01-18T12:29:01.847Z,17.30
2023-01-18T12:31:57.361Z,19.82
2023-01-18T12:34:42.688Z,19.75
2023-01-18T12:37:13.371Z,20.49
2023-01-18T12:40:01.601Z,21.17
2023-01-18T12:43:00.328Z,21.53
2023-01-18T12:45:32.982Z,20.21
2023-01-18T12:47:59.777Z,19.05
2023-01-18T12:50:31.304Z,15.40
2023-01-18T12:53:01.078Z,12.55
2023-01-18T12:55:31.576Z,11.12
2023-01-18T12:58:00.136Z,11.19
2023-01-18T13:00:40.876Z,9.79
2023-01-18T13:03:19.926Z,10.52
2023-01-18T13:05:55.643Z,9.66
2023-01-18T13:08:42.649Z,8.87
2023-01-18T13:11:25.108Z,8.91
2023-01-18T13:13:59.209Z,9.58
2023-01-18T13:16:39.732Z,8.83
2023-01-18T13:19:13.661Z,9.27
2023-01-18T13:22:05.548Z,9.08
2023-01-18T13:25:08.796Z,8.94
2023-01-18T13:27:37.578Z,8.77
2023-01-18T13:30:09.489Z,8.08
2023-01-18T13:32:37.337Z,7.90
2023-01-18T13:35:20.212Z,8.20
2023-01-18T13:37:50.346Z,7.34
2023-01-18T13:40:36.670Z,6.80
2023-01-18T13:43:05.648Z,6.65
2023-01-18T13:45:32.844Z,6.95
2023-01-18T13:48:03.384Z,6.98
2023-01-18T13:50:36.845Z,7.19
2023-01-18T13:53:15.675Z,6.62
2023-01-18T13:55:59.246Z,6.41
2023-01-18T13:58:26.589Z,6.20
2023-01-18T14:00:54.353Z,6.37
2023-01-18T14:03:25.581Z,6.88
2023-01-18T14:05:52.757Z,5.82
2023-01-18T14:08:24.822Z,5.48
2023-01-18T14:10:53.351Z,5.22
2023-01-18T14:13:45.550Z,5.65
2023-01-18T14:16:17.548Z,5.72
2023-01-18T14:19:15.423Z,4.85
2023-01-18T14:21:57.165Z,4.80
2023-01-18T14:24:46.932Z,4.78
2023-01-18T14:27:37.087Z,4.47
2023-01-18T14:30:25.442Z,4.57
2023-01-18T14:32:59.654Z,4.44
2023-01-18T14:35:26.438Z,4.60
2023-01-18T14:38:16.763Z,4.46
2023-01-18T14:40:46.371Z,4.40
2023-01-18T14:43:24.892Z,4.80
2023-01-18T14:45:56.158Z,4.64
2023-01-18T14:48:24.147Z,4.15
2023-01-18T14:50:55.031Z,4.17
2023-01-18T14:53:24.001Z,4.60
2023-01-18T14:56:14.869Z,4.49
2023-01-18T14:58:55.545Z,4.41
2023-01-18T15:01:42.497Z,4.12
2023-01-18T15:04:19.559Z,4.25
2023-01-18T15:06:50.101Z,4.39
2023-01-18T15:09:18.943Z,4.19
2023-01-18T15:11:45.509Z,4.11
2023-01-18T15:14:19.465Z,4.23
2023-01-18T15:16:47.388Z,4.38
2023-01-18T15:19:18.388Z,4.57
2023-01-18T15:21:46.000Z,3.82
2023-01-18T15:24:16.274Z,4.29
2023-01-18T15:26:45.105Z,4.33
2023-01-18T15:29:14.670Z,4.01
2023-01-18T15:31:50.320Z,3.91
2023-01-18T15:34:20.802Z,4.21
2023-01-18T15:36:47.341Z,4.08
2023-01-18T15:39:14.346Z,4.02
2023-01-18T15:41:42.958Z,3.38
2023-01-18T15:44:43.694Z,3.49
2023-01-18T15:47:23.391Z,3.55
2023-01-18T15:49:51.777Z,3.55
2023-01-18T15:53:06.706Z,3.23
2023-01-18T15:55:39.974Z,3.55
2023-01-18T15:58:33.115Z,3.76
2023-01-18T16:01:03.079Z,3.96
2023-01-18T16:03:36.457Z,4.06
2023-01-18T16:06:16.859Z,3.83
2023-01-18T16:09:01.601Z,4.12
2023-01-18T16:11:40.531Z,3.37
2023-01-18T16:14:28.887Z,3.36
2023-01-18T16:17:05.900Z,3.45
2023-01-18T16:19:50.058Z,3.28
2023-01-18T16:22:21.028Z,3.30
2023-01-18T16:24:51.343Z,3.40
2023-01-18T16:27:20.024Z,3.37
2023-01-18T16:30:05.550Z,3.19
2023-01-18T16:32:35.323Z,3.13
2023-01-18T16:35:12.203Z,3.20
2023-01-18T16:37:41.361Z,2.57
2023-01-18T16:40:09.315Z,2.89
2023-01-18T16:42:54.257Z,3.07
2023-01-18T16:45:21.505Z,2.69
2023-01-18T16:47:48.981Z,2.49
2023-01-18T16:50:16.595Z,3.10
2023-01-18T16:52:45.021Z,2.71
2023-01-18T16:55:16.267Z,3.14
2023-01-18T16:57:43.226Z,2.71
2023-01-18T17:00:16.312Z,2.82
2023-01-18T17:02:42.998Z,2.22
2023-01-18T17:05:10.398Z,2.68
2023-01-18T17:07:36.887Z,2.86
2023-01-18T17:10:11.662Z,2.79
2023-01-18T17:12:39.532Z,2.81
2023-01-18T17:15:07.679Z,2.64
2023-01-18T17:17:34.802Z,2.93
2023-01-18T17:20:01.294Z,2.45
2023-01-18T17:22:27.774Z,2.64
2023-01-18T17:24:54.391Z,2.25
2023-01-18T17:27:21.730Z,2.42
2023-01-18T17:29:48.458Z,2.39
2023-01-18T17:32:16.588Z,2.63
2023-01-18T17:34:43.235Z,2.62
2023-01-18T17:37:11.075Z,2.71
2023-01-18T17:39:49.517Z,2.16
2023-01-18T17:42:22.842Z,2.96
2023-01-18T17:45:02.925Z,3.02
2023-01-18T17:47:41.660Z,2.98
2023-01-18T17:50:13.146Z,2.77
2023-01-18T17:52:40.445Z,2.57
2023-01-18T17:55:08.729Z,2.60
2023-01-18T17:57:35.246Z,2.67
2023-01-18T18:00:02.399Z,1.93
2023-01-18T18:02:29.000Z,2.32
2023-01-18T18:04:55.471Z,2.54
2023-01-18T18:07:21.975Z,2.36
2023-01-18T18:09:48.517Z,2.43
2023-01-18T18:12:15.055Z,2.39
2023-01-18T18:14:41.688Z,2.43
2023-01-18T18:17:09.223Z,2.39
2023-01-18T18:19:35.824Z,1.87
2023-01-18T18:22:02.418Z,2.15
2023-01-18T18:24:28.963Z,2.08
2023-01-18T18:26:55.497Z,2.24
2023-01-18T18:29:22.054Z,2.31
2023-01-18T18:31:48.606Z,2.52
2023-01-18T18:34:15.181Z,2.43
2023-01-18T18:36:41.876Z,2.60
2023-01-18T18:39:09.032Z,2.72
2023-01-18T18:41:35.707Z,2.59
2023-01-18T18:44:02.800Z,2.44
2023-01-18T18:46:29.723Z,2.74
2023-01-18T18:48:56.575Z,2.19
2023-01-18T18:51:24.012Z,2.01
2023-01-18T18:53:50.729Z,2.34
2023-01-18T18:56:17.726Z,2.40
2023-01-18T18:58:44.345Z,2.05
2023-01-18T19:01:22.996Z,2.37
2023-01-18T19:03:50.907Z,2.32
2023-01-18T19:06:18.564Z,2.46
2023-01-18T19:08:45.390Z,2.10
2023-01-18T19:11:12.180Z,2.14
2023-01-18T19:13:38.885Z,1.89
2023-01-18T19:16:06.352Z,2.17
2023-01-18T19:18:33.210Z,1.85
2023-01-18T19:21:00.533Z,2.02
2023-01-18T19:23:27.154Z,2.08
2023-01-18T19:25:53.706Z,2.04
2023-01-18T19:28:20.594Z,2.11
2023-01-18T19:30:47.223Z,2.13
2023-01-18T19:33:15.483Z,1.99
2023-01-18T19:35:44.710Z,2.05
2023-01-18T19:38:12.066Z,2.17
2023-01-18T19:40:38.814Z,2.28
2023-01-18T19:43:05.354Z,1.75
2023-01-18T19:45:32.688Z,2.37
2023-01-18T19:48:00.722Z,2.08
2023-01-18T19:50:31.032Z,2.52
2023-01-18T19:52:58.579Z,2.38
2023-01-18T19:55:25.533Z,2.34
2023-01-18T19:57:56.223Z,2.37
2023-01-18T20:00:22.937Z,2.31
2023-01-18T20:02:49.499Z,2.05
2023-01-18T20:05:16.236Z,2.17
2023-01-18T20:07:43.328Z,1.96
2023-01-18T20:10:10.779Z,2.24
2023-01-18T20:12:38.339Z,2.26
2023-01-18T20:15:06.149Z,1.88
2023-01-18T20:17:33.183Z,2.18
2023-01-18T20:19:59.686Z,2.14
2023-01-18T20:22:26.193Z,2.23
2023-01-18T20:24:52.743Z,2.18
2023-01-18T20:27:27.941Z,2.30
2023-01-18T20:29:54.753Z,2.69
2023-01-18T20:32:21.858Z,1.74
2023-01-18T20:34:48.562Z,2.31
2023-01-18T20:37:15.562Z,2.05
2023-01-18T20:39:42.271Z,2.19
2023-01-18T20:42:09.223Z,2.10
2023-01-18T20:44:36.004Z,1.78
2023-01-18T20:47:03.080Z,2.21
2023-01-18T20:49:37.752Z,2.10
2023-01-18T20:52:06.733Z,2.29
2023-01-18T20:54:34.885Z,2.24
2023-01-18T20:57:02.833Z,2.21
2023-01-18T20:59:29.686Z,2.21
2023-01-18T21:01:56.589Z,2.42
2023-01-18T21:04:23.268Z,2.24
2023-01-18T21:06:49.953Z,2.39
2023-01-18T21:09:16.789Z,2.15
2023-01-18T21:11:44.397Z,2.15
2023-01-18T21:14:11.653Z,2.19
2023-01-18T21:16:38.212Z,2.03
2023-01-18T21:19:04.708Z,2.16
2023-01-18T21:21:31.874Z,2.20
2023-01-18T21:23:59.064Z,2.56
2023-01-18T21:26:25.634Z,2.38
2023-01-18T21:28:52.200Z,2.48
2023-01-18T21:31:18.853Z,2.14
2023-01-18T21:33:45.418Z,2.18
2023-01-18T21:36:17.685Z,2.17
2023-01-18T21:38:44.492Z,2.22
2023-01-18T21:41:29.750Z,2.64
2023-01-18T21:44:14.953Z,1.97
2023-01-18T21:46:46.306Z,2.26
2023-01-18T21:49:47.153Z,2.40
2023-01-18T21:52:38.076Z,2.37
2023-01-18T21:55:04.808Z,2.27
2023-01-18T21:57:31.345Z,2.49
2023-01-18T21:59:57.907Z,2.59
2023-01-18T22:02:24.727Z,2.19
2023-01-18T22:04:58.901Z,2.30
2023-01-18T22:07:26.375Z,2.28
2023-01-18T22:10:04.098Z,2.83
2023-01-18T22:12:33.330Z,2.63
2023-01-18T22:15:01.921Z,2.46
2023-01-18T22:17:28.821Z,2.64
2023-01-18T22:19:55.448Z,2.76
2023-01-18T22:22:21.965Z,2.68
2023-01-18T22:24:48.669Z,2.02
2023-01-18T22:27:15.199Z,2.52
2023-01-18T22:29:41.835Z,2.62
2023-01-18T22:32:08.753Z,2.57
2023-01-18T22:34:35.266Z,2.89
2023-01-18T22:37:03.213Z,2.61
2023-01-18T22:39:29.740Z,2.88
2023-01-18T22:41:56.279Z,2.34
2023-01-18T22:44:22.994Z,2.63
2023-01-18T22:46:49.963Z,2.84
2023-01-18T22:49:16.648Z,2.35
2023-01-18T22:51:43.570Z,2.78
2023-01-18T22:54:10.469Z,2.38
2023-01-18T22:56:37.251Z,2.83
2023-01-18T22:59:03.727Z,2.10
2023-01-18T23:01:32.576Z,2.89
2023-01-18T23:04:01.211Z,2.81
2023-01-18T23:06:28.873Z,2.27
2023-01-18T23:08:56.090Z,2.90
2023-01-18T23:11:25.323Z,2.87
2023-01-18T23:14:13.045Z,2.86
2023-01-18T23:16:58.820Z,2.79
2023-01-18T23:19:27.689Z,2.65
2023-01-18T23:21:55.174Z,2.44
2023-01-18T23:24:23.113Z,2.81
2023-01-18T23:26:49.931Z,2.40
2023-01-18T23:29:16.615Z,2.58
2023-01-18T23:31:43.373Z,2.21
2023-01-18T23:34:10.285Z,2.56
2023-01-18T23:36:36.867Z,2.37
2023-01-18T23:39:22.019Z,2.15
2023-01-18T23:42:07.209Z,2.21
2023-01-18T23:44:52.622Z,2.80
2023-01-18T23:47:37.776Z,2.53
2023-01-18T23:50:23.212Z,2.38
2023-01-18T23:53:08.586Z,2.59
2023-01-18T23:55:35.334Z,2.64
2023-01-18T23:58:02.280Z,2.84
